createdAt,value
2018-07-24T00:00:12.939Z,52.90
2018-07-24T00:02:42.271Z,53.00
2018-07-24T00:05:11.467Z,53.00
2018-07-24T00:07:40.675Z,53.10
2018-07-24T00:10:10.004Z,53.20
2018-07-24T00:12:39.211Z,53.40
2018-07-24T00:15:08.481Z,53.40
2018-07-24T00:17:37.688Z,53.50
2018-07-24T00:20:07.751Z,53.60
2018-07-24T00:22:37.035Z,53.80
2018-07-24T00:25:06.644Z,53.90
2018-07-24T00:27:37.420Z,53.90
2018-07-24T00:30:08.740Z,54.10
2018-07-24T00:32:38.158Z,54.20
2018-07-24T00:35:07.406Z,54.30
2018-07-24T00:37:36.620Z,54.40
2018-07-24T00:40:05.911Z,54.60
2018-07-24T00:42:35.146Z,54.60
2018-07-24T00:45:04.443Z,54.70
2018-07-24T00:47:33.956Z,54.70
2018-07-24T00:50:03.360Z,55.50
2018-07-24T00:52:32.704Z,54.90
2018-07-24T00:55:01.943Z,55.60
2018-07-24T00:57:31.262Z,55.10
2018-07-24T01:00:00.483Z,55.10
2018-07-24T01:02:29.742Z,55.30
2018-07-24T01:04:59.016Z,55.30
2018-07-24T01:07:32.544Z,55.50
2018-07-24T01:10:01.917Z,55.50
2018-07-24T01:12:31.527Z,55.50
2018-07-24T01:15:00.711Z,55.60
2018-07-24T01:17:30.155Z,55.60
2018-07-24T01:19:59.509Z,55.60
2018-07-24T01:22:28.935Z,55.80
2018-07-24T01:24:58.271Z,55.90
2018-07-24T01:27:27.675Z,55.90
2018-07-24T01:29:57.584Z,56.10
2018-07-24T01:32:26.956Z,56.10
2018-07-24T01:34:56.256Z,56.30
2018-07-24T01:37:25.720Z,56.40
2018-07-24T01:39:54.993Z,56.40
2018-07-24T01:42:24.220Z,56.50
2018-07-24T01:44:53.432Z,56.60
2018-07-24T01:47:22.629Z,56.70
2018-07-24T01:49:51.904Z,56.70
2018-07-24T01:52:21.236Z,56.80
2018-07-24T01:54:50.404Z,56.90
2018-07-24T01:57:19.767Z,57.00
2018-07-24T01:59:48.998Z,57.10
2018-07-24T02:02:18.394Z,57.20
2018-07-24T02:04:47.609Z,57.30
2018-07-24T02:07:16.976Z,57.20
2018-07-24T02:09:46.179Z,57.40
2018-07-24T02:12:15.413Z,57.40
2018-07-24T02:14:44.579Z,57.50
2018-07-24T02:17:13.780Z,57.50
2018-07-24T02:19:44.132Z,57.60
2018-07-24T02:22:13.584Z,57.80
2018-07-24T02:24:43.009Z,57.70
2018-07-24T02:27:12.534Z,57.90
2018-07-24T02:29:41.782Z,57.90
2018-07-24T02:32:10.957Z,57.90
2018-07-24T02:34:40.301Z,58.00
2018-07-24T02:37:09.866Z,58.10
2018-07-24T02:39:38.991Z,58.10
2018-07-24T02:42:08.386Z,58.20
2018-07-24T02:44:37.598Z,58.30
2018-07-24T02:47:06.791Z,58.30
2018-07-24T02:49:36.111Z,58.40
2018-07-24T02:52:05.447Z,58.50
2018-07-24T02:54:34.736Z,58.50
2018-07-24T02:57:04.028Z,58.60
2018-07-24T02:59:33.284Z,58.80
2018-07-24T03:02:02.472Z,58.80
2018-07-24T03:04:32.244Z,58.80
2018-07-24T03:07:01.571Z,58.80
2018-07-24T03:09:30.816Z,58.90
2018-07-24T03:12:00.340Z,59.00
2018-07-24T03:17:34.924Z,59.20
2018-07-24T03:20:15.900Z,59.20
2018-07-24T03:23:04.140Z,59.30
2018-07-24T03:25:33.628Z,59.30
2018-07-24T03:28:02.992Z,59.40
2018-07-24T03:30:33.008Z,59.50
2018-07-24T03:33:03.597Z,59.60
2018-07-24T03:35:32.873Z,59.60
2018-07-24T03:38:02.279Z,59.80
2018-07-24T03:40:31.825Z,59.90
2018-07-24T03:43:01.147Z,60.00
2018-07-24T03:45:30.433Z,60.10
2018-07-24T03:47:59.651Z,60.10
2018-07-24T03:50:28.949Z,60.10
2018-07-24T03:52:58.140Z,60.10
2018-07-24T03:55:27.371Z,60.20
2018-07-24T03:57:56.607Z,60.30
2018-07-24T04:00:26.124Z,60.50
2018-07-24T04:02:55.554Z,60.50
2018-07-24T04:05:24.753Z,60.60
2018-07-24T04:07:54.022Z,60.60
2018-07-24T04:10:23.164Z,60.60
2018-07-24T04:12:52.604Z,60.60
2018-07-24T04:15:21.812Z,60.70
2018-07-24T04:17:51.007Z,60.80
2018-07-24T04:20:20.214Z,60.90
2018-07-24T04:22:49.476Z,60.90
2018-07-24T04:25:18.686Z,60.90
2018-07-24T04:27:48.877Z,61.70
2018-07-24T04:30:18.079Z,60.90
2018-07-24T04:32:47.987Z,61.00
2018-07-24T04:35:17.773Z,60.90
2018-07-24T04:37:47.432Z,61.00
2018-07-24T04:40:16.711Z,60.90
2018-07-24T04:42:45.863Z,61.00
2018-07-24T04:45:15.111Z,60.90
2018-07-24T04:47:44.499Z,60.90
2018-07-24T04:50:13.748Z,60.80
2018-07-24T04:52:43.058Z,60.90
2018-07-24T04:55:13.105Z,60.80
2018-07-24T04:57:42.482Z,60.80
2018-07-24T05:00:11.719Z,60.80
2018-07-24T05:02:40.942Z,60.70
2018-07-24T05:05:10.100Z,60.70
2018-07-24T05:07:39.300Z,60.60
2018-07-24T05:10:09.320Z,60.50
2018-07-24T05:12:39.148Z,60.50
2018-07-24T05:15:08.675Z,60.40
2018-07-24T05:17:38.550Z,60.30
2018-07-24T05:20:07.770Z,60.20
2018-07-24T05:22:37.951Z,60.10
2018-07-24T05:25:07.929Z,60.00
2018-07-24T05:27:37.572Z,59.80
2018-07-24T05:30:08.614Z,59.80
2018-07-24T05:32:39.799Z,59.70
2018-07-24T05:35:13.445Z,59.70
2018-07-24T05:37:43.185Z,60.20
2018-07-24T05:40:17.375Z,59.50
2018-07-24T05:42:51.893Z,59.40
2018-07-24T05:45:25.655Z,59.50
2018-07-24T05:47:55.363Z,59.00
2018-07-24T05:50:24.740Z,59.20
2018-07-24T05:52:54.846Z,59.00
2018-07-24T05:55:24.266Z,58.80
2018-07-24T05:57:54.056Z,58.70
2018-07-24T06:00:25.094Z,58.60
2018-07-24T06:02:55.841Z,58.50
2018-07-24T06:05:25.037Z,58.40
2018-07-24T06:07:54.904Z,58.20
2018-07-24T06:10:24.484Z,58.30
2018-07-24T06:12:53.745Z,58.10
2018-07-24T06:15:23.184Z,58.00
2018-07-24T06:17:53.273Z,57.90
2018-07-24T06:20:23.492Z,57.70
2018-07-24T06:22:52.741Z,57.60
2018-07-24T06:25:21.935Z,57.40
2018-07-24T06:27:51.101Z,57.20
2018-07-24T06:30:20.682Z,57.10
2018-07-24T06:32:49.850Z,57.00
2018-07-24T06:35:19.049Z,57.00
2018-07-24T06:37:48.302Z,56.90
2018-07-24T06:40:18.123Z,56.70
2018-07-24T06:42:47.851Z,56.50
2018-07-24T06:45:17.068Z,56.50
2018-07-24T06:47:46.361Z,56.40
2018-07-24T06:50:15.590Z,56.10
2018-07-24T06:52:45.655Z,55.80
2018-07-24T06:55:15.950Z,55.60
2018-07-24T06:57:45.799Z,55.80
2018-07-24T07:00:15.686Z,55.30
2018-07-24T07:02:45.670Z,55.20
2018-07-24T07:05:15.655Z,55.20
2018-07-24T07:07:45.195Z,55.20
2018-07-24T07:10:15.461Z,55.00
2018-07-24T07:12:45.453Z,55.00
2018-07-24T07:15:15.499Z,54.80
2018-07-24T07:17:45.494Z,54.70
2018-07-24T07:20:15.630Z,54.70
2018-07-24T07:22:44.952Z,54.60
2018-07-24T07:25:14.160Z,54.40
2018-07-24T07:27:43.369Z,54.40
2018-07-24T07:30:12.571Z,54.40
2018-07-24T07:32:41.837Z,54.40
2018-07-24T07:35:11.011Z,54.40
2018-07-24T07:37:40.288Z,54.40
2018-07-24T07:40:09.575Z,54.40
2018-07-24T07:42:38.808Z,54.30
2018-07-24T07:45:08.091Z,54.10
2018-07-24T07:47:37.631Z,54.00
2018-07-24T07:50:06.872Z,53.90
2018-07-24T07:52:36.424Z,53.80
2018-07-24T07:55:05.624Z,53.60
2018-07-24T07:57:34.881Z,53.30
2018-07-24T08:00:04.244Z,53.30
2018-07-24T08:02:34.154Z,53.10
2018-07-24T08:05:03.694Z,53.10
2018-07-24T08:07:32.934Z,52.80
2018-07-24T08:10:02.154Z,52.80
2018-07-24T08:12:31.442Z,52.60
2018-07-24T08:15:01.344Z,52.60
2018-07-24T08:17:31.070Z,52.60
2018-07-24T08:20:00.261Z,52.60
2018-07-24T08:22:29.646Z,52.50
2018-07-24T08:24:58.848Z,52.20
2018-07-24T08:27:28.159Z,52.30
2018-07-24T08:29:57.385Z,52.30
2018-07-24T08:32:26.654Z,52.00
2018-07-24T08:34:55.854Z,51.80
2018-07-24T08:37:25.156Z,51.50
2018-07-24T08:39:54.408Z,51.50
2018-07-24T08:42:24.616Z,51.40
2018-07-24T08:44:56.069Z,51.10
2018-07-24T08:47:26.239Z,50.90
2018-07-24T08:52:37.309Z,50.10
2018-07-24T08:55:06.626Z,49.90
2018-07-24T08:57:35.833Z,49.50
2018-07-24T09:00:06.772Z,49.60
2018-07-24T09:02:37.139Z,49.10
2018-07-24T09:05:07.156Z,48.80
2018-07-24T09:07:36.898Z,48.60
2018-07-24T09:10:06.215Z,48.40
2018-07-24T09:12:36.701Z,48.10
2018-07-24T09:15:06.863Z,48.20
2018-07-24T09:17:37.365Z,48.20
2018-07-24T09:20:06.846Z,48.20
2018-07-24T09:22:36.441Z,47.90
2018-07-24T09:25:07.988Z,47.50
2018-07-24T09:27:40.395Z,47.70
2018-07-24T09:30:10.603Z,47.60
2018-07-24T09:32:40.748Z,47.40
2018-07-24T09:35:11.163Z,47.20
2018-07-24T09:37:47.102Z,47.40
2018-07-24T09:40:17.213Z,47.00
2018-07-24T09:42:48.888Z,47.00
2018-07-24T09:45:19.209Z,46.50
2018-07-24T09:47:52.382Z,46.30
2018-07-24T09:50:22.569Z,46.20
2018-07-24T09:52:52.956Z,46.40
2018-07-24T09:55:22.689Z,46.60
2018-07-24T09:57:52.452Z,45.90
2018-07-24T10:00:26.891Z,45.70
2018-07-24T10:02:56.149Z,45.60
2018-07-24T10:05:25.444Z,45.60
2018-07-24T10:07:54.630Z,45.60
2018-07-24T10:10:24.056Z,45.50
2018-07-24T10:12:54.491Z,45.50
2018-07-24T10:15:26.201Z,45.50
2018-07-24T10:17:58.263Z,45.60
2018-07-24T10:20:29.391Z,45.40
2018-07-24T10:22:59.977Z,45.00
2018-07-24T10:25:32.564Z,45.20
2018-07-24T10:28:03.661Z,45.10
2018-07-24T10:30:36.292Z,45.20
2018-07-24T10:33:08.195Z,45.00
2018-07-24T10:35:38.281Z,44.90
2018-07-24T10:38:07.712Z,44.70
2018-07-24T10:40:37.945Z,44.70
2018-07-24T10:43:07.488Z,44.80
2018-07-24T10:45:38.434Z,44.70
2018-07-24T10:48:07.697Z,44.70
2018-07-24T10:50:37.594Z,44.40
2018-07-24T10:53:07.320Z,44.40
2018-07-24T10:55:36.474Z,44.30
2018-07-24T10:58:06.343Z,44.10
2018-07-24T11:00:37.190Z,44.00
2018-07-24T11:03:07.574Z,44.20
2018-07-24T11:05:37.470Z,44.00
2018-07-24T11:08:07.911Z,43.90
2018-07-24T11:10:38.228Z,43.80
2018-07-24T11:13:08.059Z,43.60
2018-07-24T11:15:37.887Z,43.60
2018-07-24T11:18:07.171Z,43.50
2018-07-24T11:20:37.276Z,43.20
2018-07-24T11:23:07.235Z,43.30
2018-07-24T11:25:37.006Z,43.30
2018-07-24T11:28:07.463Z,43.00
2018-07-24T11:30:37.425Z,42.80
2018-07-24T11:33:07.350Z,42.60
2018-07-24T11:35:36.607Z,42.50
2018-07-24T11:38:06.255Z,42.10
2018-07-24T11:40:35.727Z,42.00
2018-07-24T11:43:07.026Z,41.60
2018-07-24T11:45:38.589Z,41.10
2018-07-24T11:48:10.254Z,40.00
2018-07-24T11:50:43.254Z,39.60
2018-07-24T11:53:14.868Z,38.90
2018-07-24T11:55:52.103Z,37.60
2018-07-24T11:58:24.059Z,37.10
2018-07-24T12:00:57.480Z,36.70
2018-07-24T12:03:27.292Z,36.20
2018-07-24T12:05:59.277Z,36.00
2018-07-24T12:08:30.110Z,35.10
2018-07-24T12:11:02.619Z,34.70
2018-07-24T12:13:37.895Z,34.10
2018-07-24T12:16:09.575Z,33.90
2018-07-24T12:18:43.327Z,32.80
2018-07-24T12:21:15.233Z,32.70
2018-07-24T12:23:47.672Z,32.10
2018-07-24T12:26:21.493Z,31.50
2018-07-24T12:28:54.406Z,30.90
2018-07-24T12:31:25.419Z,30.10
2018-07-24T12:33:56.943Z,29.60
2018-07-24T12:36:29.007Z,29.70
2018-07-24T12:38:58.724Z,29.90
2018-07-24T12:41:34.961Z,30.00
2018-07-24T12:44:06.546Z,30.00
2018-07-24T12:46:37.091Z,29.80
2018-07-24T12:49:07.269Z,29.50
2018-07-24T12:51:36.848Z,29.50
2018-07-24T12:54:07.953Z,29.20
2018-07-24T12:56:43.347Z,29.40
2018-07-24T12:59:13.888Z,29.20
2018-07-24T13:01:44.394Z,29.10
2018-07-24T13:04:15.035Z,28.90
2018-07-24T13:06:44.459Z,28.50
2018-07-24T13:09:13.802Z,28.30
2018-07-24T13:11:43.468Z,28.40
2018-07-24T13:14:13.349Z,28.50
2018-07-24T13:16:43.273Z,28.60
2018-07-24T13:19:12.892Z,28.60
2018-07-24T13:21:42.704Z,28.40
2018-07-24T13:24:13.220Z,28.20
2018-07-24T13:26:42.924Z,27.90
2018-07-24T13:29:14.612Z,27.70
2018-07-24T13:31:45.757Z,27.70
2018-07-24T13:34:15.184Z,27.70
2018-07-24T13:36:45.623Z,27.60
2018-07-24T13:39:18.673Z,27.60
2018-07-24T13:41:50.521Z,27.70
2018-07-24T13:44:24.973Z,27.70
2018-07-24T13:46:56.356Z,27.60
2018-07-24T13:49:28.406Z,27.60
2018-07-24T13:52:00.015Z,27.60
2018-07-24T13:54:30.734Z,27.50
2018-07-24T13:57:01.398Z,27.30
2018-07-24T13:59:31.541Z,27.20
2018-07-24T14:02:01.282Z,27.20
2018-07-24T14:04:30.529Z,27.00
2018-07-24T14:06:59.850Z,27.00
2018-07-24T14:09:30.587Z,27.00
2018-07-24T14:12:01.247Z,27.00
2018-07-24T14:14:32.186Z,27.30
2018-07-24T14:17:02.513Z,27.30
2018-07-24T14:19:34.309Z,27.20
2018-07-24T14:22:03.920Z,27.10
2018-07-24T14:24:34.234Z,27.00
2018-07-24T14:27:07.870Z,27.10
2018-07-24T14:29:39.689Z,26.80
2018-07-24T14:32:12.036Z,27.30
2018-07-24T14:34:43.974Z,27.20
2018-07-24T14:37:14.204Z,27.10
2018-07-24T14:39:44.411Z,26.70
2018-07-24T14:42:14.905Z,26.70
2018-07-24T14:44:45.860Z,27.10
2018-07-24T14:47:15.364Z,27.50
2018-07-24T14:49:48.067Z,27.80
2018-07-24T14:52:23.242Z,28.20
2018-07-24T14:54:59.690Z,28.00
2018-07-24T14:57:30.788Z,27.90
2018-07-24T15:00:00.086Z,27.90
2018-07-24T15:02:29.360Z,27.50
2018-07-24T15:04:58.769Z,27.40
2018-07-24T15:07:28.100Z,27.30
2018-07-24T15:09:57.274Z,27.40
2018-07-24T15:12:26.500Z,27.60
2018-07-24T15:14:56.848Z,27.60
2018-07-24T15:17:26.493Z,27.50
2018-07-24T15:19:56.181Z,27.30
2018-07-24T15:22:25.785Z,27.40
2018-07-24T15:24:55.271Z,27.40
2018-07-24T15:27:25.115Z,27.40
2018-07-24T15:29:56.581Z,27.30
2018-07-24T15:32:27.235Z,27.30
2018-07-24T15:35:00.968Z,27.00
2018-07-24T15:37:32.195Z,27.20
2018-07-24T15:40:05.380Z,27.20
2018-07-24T15:42:35.426Z,27.10
2018-07-24T15:45:08.880Z,27.10
2018-07-24T15:47:39.285Z,27.00
2018-07-24T15:50:10.177Z,26.70
2018-07-24T15:52:41.264Z,26.70
2018-07-24T15:55:12.179Z,27.30
2018-07-24T15:57:42.023Z,27.10
2018-07-24T16:00:11.631Z,27.20
2018-07-24T16:02:40.885Z,27.30
2018-07-24T16:05:10.212Z,27.20
2018-07-24T16:07:39.466Z,27.10
2018-07-24T16:10:08.741Z,27.20
2018-07-24T16:12:38.637Z,27.40
2018-07-24T16:15:08.801Z,27.20
2018-07-24T16:17:38.100Z,26.90
2018-07-24T16:20:07.388Z,26.80
2018-07-24T16:22:36.871Z,27.00
2018-07-24T16:25:13.921Z,27.00
2018-07-24T16:27:43.156Z,27.00
2018-07-24T16:30:12.389Z,27.00
2018-07-24T16:32:42.164Z,27.00
2018-07-24T16:35:11.400Z,27.00
2018-07-24T16:37:40.701Z,27.10
2018-07-24T16:40:10.613Z,27.30
2018-07-24T16:42:40.491Z,27.40
2018-07-24T16:45:09.786Z,27.40
2018-07-24T16:47:39.023Z,27.40
2018-07-24T16:50:08.471Z,27.50
2018-07-24T16:52:37.956Z,28.00
2018-07-24T16:55:07.532Z,28.10
2018-07-24T16:57:37.608Z,28.00
2018-07-24T17:00:07.332Z,28.00
2018-07-24T17:02:37.053Z,27.90
2018-07-24T17:05:07.135Z,27.90
2018-07-24T17:07:37.002Z,27.90
2018-07-24T17:10:06.487Z,27.90
2018-07-24T17:12:36.548Z,27.90
2018-07-24T17:15:06.771Z,28.00
2018-07-24T17:17:36.536Z,27.60
2018-07-24T17:20:06.849Z,27.60
2018-07-24T17:22:36.512Z,27.90
2018-07-24T17:25:06.295Z,28.00
2018-07-24T17:27:36.599Z,28.10
2018-07-24T17:30:06.170Z,28.30
2018-07-24T17:32:35.758Z,28.70
2018-07-24T17:35:05.168Z,28.60
2018-07-24T17:37:34.508Z,28.60
2018-07-24T17:40:04.140Z,28.70
2018-07-24T17:42:33.431Z,29.00
2018-07-24T17:45:02.777Z,29.10
2018-07-24T17:47:32.062Z,29.10
2018-07-24T17:50:01.349Z,29.10
2018-07-24T17:52:31.735Z,29.10
2018-07-24T17:55:00.996Z,29.20
2018-07-24T17:57:30.793Z,29.20
2018-07-24T18:00:01.333Z,29.30
2018-07-24T18:02:31.533Z,29.70
2018-07-24T18:05:00.949Z,29.80
2018-07-24T18:07:30.624Z,30.00
2018-07-24T18:09:59.926Z,30.30
2018-07-24T18:12:29.608Z,30.80
2018-07-24T18:14:59.389Z,31.30
2018-07-24T18:17:28.722Z,31.80
2018-07-24T18:19:58.343Z,32.30
2018-07-24T18:22:28.347Z,32.80
2018-07-24T18:25:00.068Z,33.20
2018-07-24T18:27:30.677Z,33.60
2018-07-24T18:30:00.308Z,33.80
2018-07-24T18:32:30.229Z,34.10
2018-07-24T18:35:11.482Z,34.50
2018-07-24T18:37:40.830Z,34.90
2018-07-24T18:40:10.441Z,35.30
2018-07-24T18:42:40.361Z,35.70
2018-07-24T18:45:09.841Z,35.90
2018-07-24T18:47:39.178Z,36.40
2018-07-24T18:50:08.668Z,36.60
2018-07-24T18:52:38.248Z,36.70
2018-07-24T18:55:08.211Z,37.00
2018-07-24T18:57:38.043Z,37.20
2018-07-24T19:00:08.454Z,37.40
2018-07-24T19:02:38.380Z,37.70
2018-07-24T19:05:08.437Z,37.90
2018-07-24T19:07:37.934Z,38.10
2018-07-24T19:10:08.005Z,38.40
2018-07-24T19:12:38.435Z,38.60
2018-07-24T19:15:08.429Z,39.00
2018-07-24T19:17:38.305Z,39.30
2018-07-24T19:20:08.481Z,39.60
2018-07-24T19:22:42.676Z,39.80
2018-07-24T19:25:14.412Z,40.00
2018-07-24T19:27:44.660Z,40.20
2018-07-24T19:30:15.415Z,40.40
2018-07-24T19:32:44.833Z,40.60
2018-07-24T19:35:14.314Z,40.70
2018-07-24T19:37:43.792Z,41.00
2018-07-24T19:40:13.511Z,41.20
2018-07-24T19:42:43.924Z,41.50
2018-07-24T19:45:13.589Z,41.80
2018-07-24T19:47:43.842Z,42.00
2018-07-24T19:50:13.882Z,42.30
2018-07-24T19:52:44.752Z,42.50
2018-07-24T19:55:14.585Z,42.80
2018-07-24T19:57:44.770Z,43.10
2018-07-24T20:00:16.006Z,43.30
2018-07-24T20:02:46.370Z,43.70
2018-07-24T20:05:16.604Z,44.00
2018-07-24T20:07:47.471Z,44.30
2018-07-24T20:10:17.700Z,44.40
2018-07-24T20:12:48.415Z,44.80
2018-07-24T20:15:20.335Z,44.90
2018-07-24T20:17:50.410Z,45.10
2018-07-24T20:20:20.747Z,45.30
2018-07-24T20:22:50.789Z,45.50
2018-07-24T20:25:21.218Z,45.70
2018-07-24T20:27:51.445Z,46.10
2018-07-24T20:30:21.281Z,46.20
2018-07-24T20:32:51.715Z,46.30
2018-07-24T20:35:21.153Z,46.60
2018-07-24T20:37:51.550Z,46.80
2018-07-24T20:40:21.114Z,47.00
2018-07-24T20:42:50.589Z,47.10
2018-07-24T20:45:20.599Z,47.20
2018-07-24T20:47:51.085Z,47.50
2018-07-24T20:50:21.331Z,47.60
2018-07-24T20:52:51.615Z,47.80
2018-07-24T20:55:21.083Z,48.30
2018-07-24T20:57:50.809Z,48.10
2018-07-24T21:00:20.940Z,48.20
2018-07-24T21:02:51.251Z,48.40
2018-07-24T21:05:21.326Z,48.50
2018-07-24T21:07:51.523Z,48.60
2018-07-24T21:10:21.164Z,49.40
2018-07-24T21:12:51.387Z,48.80
2018-07-24T21:15:21.287Z,49.00
2018-07-24T21:17:51.114Z,49.10
2018-07-24T21:20:20.607Z,49.30
2018-07-24T21:22:50.122Z,49.40
2018-07-24T21:25:20.177Z,49.50
2018-07-24T21:27:49.875Z,49.60
2018-07-24T21:30:24.709Z,49.70
2018-07-24T21:32:55.105Z,49.70
2018-07-24T21:35:25.013Z,49.70
2018-07-24T21:37:54.659Z,49.90
2018-07-24T21:40:25.249Z,50.10
2018-07-24T21:42:56.058Z,50.30
2018-07-24T21:45:25.786Z,50.50
2018-07-24T21:47:55.707Z,50.60
2018-07-24T21:50:26.161Z,50.70
2018-07-24T21:52:56.882Z,50.90
2018-07-24T21:55:32.972Z,51.00
2018-07-24T21:58:02.356Z,51.20
2018-07-24T22:00:35.298Z,51.20
2018-07-24T22:03:05.980Z,51.40
2018-07-24T22:05:35.902Z,51.40
2018-07-24T22:08:05.773Z,51.60
2018-07-24T22:10:35.170Z,51.80
2018-07-24T22:13:04.789Z,52.00
2018-07-24T22:15:35.323Z,52.20
2018-07-24T22:18:04.787Z,52.30
2018-07-24T22:20:34.685Z,52.30
2018-07-24T22:23:04.575Z,52.60
2018-07-24T22:25:34.497Z,52.70
2018-07-24T22:28:04.071Z,52.80
2018-07-24T22:30:33.573Z,52.90
2018-07-24T22:33:02.825Z,53.00
2018-07-24T22:35:32.145Z,53.20
2018-07-24T22:38:03.233Z,53.40
2018-07-24T22:40:32.501Z,53.40
2018-07-24T22:43:01.807Z,53.50
2018-07-24T22:45:31.076Z,53.60
2018-07-24T22:48:00.305Z,53.60
2018-07-24T22:50:31.997Z,53.70
2018-07-24T22:53:01.286Z,53.80
2018-07-24T22:55:30.485Z,53.80
2018-07-24T22:57:59.828Z,54.00
2018-07-24T23:00:29.052Z,54.10
2018-07-24T23:02:58.510Z,54.30
2018-07-24T23:05:27.676Z,54.40
2018-07-24T23:07:56.964Z,54.30
2018-07-24T23:10:33.149Z,54.40
2018-07-24T23:13:04.157Z,54.50
2018-07-24T23:15:33.419Z,54.60
2018-07-24T23:18:02.596Z,54.80
2018-07-24T23:20:31.800Z,54.70
2018-07-24T23:23:00.965Z,54.80
2018-07-24T23:25:30.111Z,55.00
2018-07-24T23:27:59.326Z,55.00
2018-07-24T23:30:28.549Z,55.10
2018-07-24T23:32:57.662Z,55.20
2018-07-24T23:35:26.762Z,55.30
2018-07-24T23:37:56.503Z,55.50
2018-07-24T23:40:26.201Z,55.60
2018-07-24T23:42:55.703Z,55.70
2018-07-24T23:45:25.037Z,55.80
2018-07-24T23:47:54.537Z,55.80
2018-07-24T23:50:23.858Z,56.00
2018-07-24T23:52:53.341Z,56.00
2018-07-24T23:55:22.798Z,56.10
2018-07-24T23:57:52.204Z,56.20
